Fullerton, Louisiana
Current Conditions -  °F | °C
As of 7:54 PM on Sunday 21 Dec 2014 (Local Time) from KBKB Reporting Station
Overcast Overcast  
Wind Chill: 52°   Ceiling: 400
Heat Index: 52°   Visibility: 9mi
Dew Point: 47°   Wind: 3mph
Humidity: 83%   Direction: NA
Pressure: 29.93"   Gusts: NA
Location:  30.99°N, 92.98°W
Report Text: KBKB 220154Z AUTO VRB03KT 9SM OVC004 11/08 A2993 RMK AO2 SLP164 T01110083 $
Loading
Personal Weather Stations






























Interactive Weather Map New forecast layout! Learn more

10-Day Weather Forecast

Advertisements
Track Severe Weather on mobile